AEE284 LGAV-LGKR
Flight info
| Callsign | AEE284 |
|---|---|
| Flight time | 0h 49m |
| Altitude | 30000 |
| Route | KOR UL53 PARNA |
| Aircraft | A320/M-SDE3FGHIRWY/LB1 |
Departure
| Time | 2026-05-04 10:25 |
|---|---|
| Airport | Athens Eleftherios Venizelos International Airport (LGAV) |
Arrival
| Time | 2026-05-04 11:14 |
|---|---|
| Airport | Corfu Ioannis Kapodistrias International Airport (LGKR) |
| Time | Latitude | Longitude | Altitude | Speed | Heading |
|---|---|---|---|---|---|
| 2026-05-04 10:06 | 37.93872 | 23.95081 | 301 ft | 0 kts | 307° |
| 2026-05-04 10:11 | 37.93872 | 23.95082 | 301 ft | 1 kts | 307° |
| 2026-05-04 10:11 | 37.93858 | 23.95104 | 304 ft | 3 kts | 307° |
| 2026-05-04 10:11 | 37.93844 | 23.95128 | 300 ft | 2 kts | 307° |
| 2026-05-04 10:11 | 37.93833 | 23.95148 | 300 ft | 3 kts | 287° |
| 2026-05-04 10:12 | 37.93832 | 23.95176 | 300 ft | 3 kts | 241° |
| 2026-05-04 10:12 | 37.93840 | 23.95189 | 300 ft | 0 kts | 217° |
| 2026-05-04 10:16 | 37.93608 | 23.95021 | 300 ft | 11 kts | 136° |
| 2026-05-04 10:16 | 37.93541 | 23.95034 | 300 ft | 12 kts | 219° |
| 2026-05-04 10:16 | 37.93463 | 23.94960 | 303 ft | 16 kts | 216° |
| 2026-05-04 10:16 | 37.93368 | 23.94868 | 301 ft | 18 kts | 216° |
| 2026-05-04 10:17 | 37.93271 | 23.94778 | 300 ft | 9 kts | 219° |
| 2026-05-04 10:17 | 37.93218 | 23.94725 | 300 ft | 11 kts | 218° |
| 2026-05-04 10:19 | 37.92701 | 23.94382 | 304 ft | 18 kts | 217° |
| 2026-05-04 10:19 | 37.92605 | 23.94291 | 303 ft | 8 kts | 215° |
| 2026-05-04 10:19 | 37.92583 | 23.94280 | 304 ft | 0 kts | 191° |
| 2026-05-04 10:20 | 37.92575 | 23.94281 | 303 ft | 5 kts | 176° |
| 2026-05-04 10:20 | 37.92534 | 23.94328 | 305 ft | 8 kts | 126° |
| 2026-05-04 10:20 | 37.92525 | 23.94344 | 306 ft | 0 kts | 126° |
| 2026-05-04 10:21 | 37.92522 | 23.94350 | 306 ft | 4 kts | 126° |
| 2026-05-04 10:21 | 37.92489 | 23.94408 | 308 ft | 9 kts | 125° |
| 2026-05-04 10:21 | 37.92508 | 23.94475 | 308 ft | 8 kts | 35° |
| 2026-05-04 10:22 | 37.92513 | 23.94479 | 307 ft | 0 kts | 36° |
| 2026-05-04 10:22 | 37.92548 | 23.94512 | 306 ft | 31 kts | 36° |
| 2026-05-04 10:22 | 37.92916 | 23.94855 | 299 ft | 97 kts | 37° |
| 2026-05-04 10:23 | 37.93595 | 23.95504 | 283 ft | 146 kts | 37° |
| 2026-05-04 10:23 | 37.94476 | 23.96361 | 578 ft | 163 kts | 36° |
| 2026-05-04 10:25 | 38.02386 | 24.03928 | 4615 ft | 241 kts | 34° |
| 2026-05-04 10:25 | 38.03729 | 24.05226 | 5492 ft | 244 kts | 34° |
| 2026-05-04 10:25 | 38.05180 | 24.06420 | 6131 ft | 255 kts | 18° |
| 2026-05-04 10:25 | 38.06928 | 24.06737 | 6831 ft | 258 kts | 351° |
| 2026-05-04 10:26 | 38.08606 | 24.05970 | 7628 ft | 260 kts | 325° |
| 2026-05-04 10:26 | 38.09813 | 24.04265 | 8469 ft | 266 kts | 299° |
| 2026-05-04 10:26 | 38.10232 | 24.01958 | 9288 ft | 277 kts | 271° |
| 2026-05-04 10:26 | 38.09933 | 23.99511 | 10094 ft | 283 kts | 263° |
| 2026-05-04 10:27 | 38.09544 | 23.97009 | 10567 ft | 298 kts | 263° |
| 2026-05-04 10:27 | 38.09127 | 23.94364 | 10734 ft | 321 kts | 262° |
| 2026-05-04 10:27 | 38.08675 | 23.91496 | 10971 ft | 340 kts | 262° |
| 2026-05-04 10:27 | 38.08205 | 23.88522 | 11567 ft | 346 kts | 262° |
| 2026-05-04 10:28 | 38.07727 | 23.85509 | 12233 ft | 350 kts | 262° |
| 2026-05-04 10:28 | 38.07242 | 23.82463 | 12913 ft | 354 kts | 262° |
| 2026-05-04 10:28 | 38.06755 | 23.79387 | 13587 ft | 357 kts | 262° |
| 2026-05-04 10:28 | 38.06267 | 23.76282 | 14236 ft | 361 kts | 262° |
| 2026-05-04 10:29 | 38.05775 | 23.73142 | 14823 ft | 364 kts | 262° |
| 2026-05-04 10:29 | 38.05283 | 23.69989 | 15411 ft | 366 kts | 262° |
| 2026-05-04 10:29 | 38.04786 | 23.66800 | 15988 ft | 369 kts | 262° |
| 2026-05-04 10:29 | 38.04284 | 23.63593 | 16555 ft | 373 kts | 262° |
| 2026-05-04 10:30 | 38.03775 | 23.60354 | 17136 ft | 376 kts | 262° |
| 2026-05-04 10:30 | 38.03259 | 23.57086 | 17725 ft | 379 kts | 263° |
| 2026-05-04 10:30 | 38.02740 | 23.53796 | 18327 ft | 382 kts | 263° |
| 2026-05-04 10:30 | 38.02211 | 23.50472 | 18890 ft | 385 kts | 263° |
| 2026-05-04 10:31 | 38.01679 | 23.47133 | 19456 ft | 388 kts | 263° |
| 2026-05-04 10:31 | 38.01145 | 23.43773 | 20048 ft | 390 kts | 263° |
| 2026-05-04 10:32 | 37.97899 | 23.23447 | 23266 ft | 392 kts | 267° |
| 2026-05-04 10:33 | 37.97350 | 23.20048 | 23596 ft | 395 kts | 267° |
| 2026-05-04 10:33 | 37.96796 | 23.16626 | 23951 ft | 399 kts | 267° |
| 2026-05-04 10:33 | 37.96235 | 23.13167 | 24317 ft | 401 kts | 267° |
| 2026-05-04 10:33 | 37.95671 | 23.09698 | 24628 ft | 403 kts | 267° |
| 2026-05-04 10:34 | 37.95102 | 23.06204 | 24981 ft | 406 kts | 267° |
| 2026-05-04 10:34 | 37.94532 | 23.02693 | 25337 ft | 408 kts | 267° |
| 2026-05-04 10:34 | 37.94045 | 22.99164 | 25702 ft | 403 kts | 273° |
| 2026-05-04 10:34 | 37.94052 | 22.95657 | 26052 ft | 394 kts | 284° |
| 2026-05-04 10:35 | 37.94588 | 22.92301 | 26440 ft | 385 kts | 294° |
| 2026-05-04 10:35 | 37.95600 | 22.89194 | 26835 ft | 380 kts | 303° |
| 2026-05-04 10:35 | 37.97023 | 22.86389 | 27150 ft | 379 kts | 309° |
| 2026-05-04 10:35 | 37.98549 | 22.83649 | 27470 ft | 381 kts | 309° |
| 2026-05-04 10:36 | 38.00074 | 22.80889 | 27819 ft | 383 kts | 309° |
| 2026-05-04 10:36 | 38.01600 | 22.78107 | 28105 ft | 385 kts | 308° |
| 2026-05-04 10:36 | 38.03129 | 22.75308 | 28445 ft | 387 kts | 308° |
| 2026-05-04 10:36 | 38.04669 | 22.72484 | 28774 ft | 389 kts | 308° |
| 2026-05-04 10:37 | 38.06210 | 22.69663 | 29221 ft | 388 kts | 308° |
| 2026-05-04 10:37 | 38.07747 | 22.66858 | 29706 ft | 387 kts | 308° |
| 2026-05-04 10:37 | 38.09281 | 22.64059 | 30105 ft | 386 kts | 308° |
| 2026-05-04 10:37 | 38.10812 | 22.61261 | 30177 ft | 386 kts | 308° |
| 2026-05-04 10:39 | 38.21508 | 22.41663 | 30172 ft | 387 kts | 308° |
| 2026-05-04 10:40 | 38.24567 | 22.36034 | 30170 ft | 386 kts | 308° |
| 2026-05-04 10:40 | 38.27614 | 22.30401 | 30170 ft | 386 kts | 308° |
| 2026-05-04 10:41 | 38.30659 | 22.24763 | 30188 ft | 386 kts | 308° |
| 2026-05-04 10:41 | 38.33712 | 22.19128 | 30179 ft | 386 kts | 308° |
| 2026-05-04 10:42 | 38.36773 | 22.13471 | 30171 ft | 388 kts | 308° |
| 2026-05-04 10:42 | 38.39805 | 22.07845 | 30148 ft | 388 kts | 308° |
| 2026-05-04 10:43 | 38.42857 | 22.02168 | 30153 ft | 387 kts | 308° |
| 2026-05-04 10:45 | 38.54999 | 21.79466 | 30143 ft | 387 kts | 308° |
| 2026-05-04 10:45 | 38.58020 | 21.73806 | 30158 ft | 389 kts | 308° |
| 2026-05-04 10:46 | 38.61062 | 21.68085 | 30164 ft | 389 kts | 308° |
| 2026-05-04 10:46 | 38.64097 | 21.62367 | 30165 ft | 388 kts | 308° |
| 2026-05-04 10:47 | 38.67128 | 21.56647 | 30158 ft | 388 kts | 308° |
| 2026-05-04 10:47 | 38.70149 | 21.50920 | 30169 ft | 389 kts | 308° |
| 2026-05-04 10:49 | 38.82233 | 21.27998 | 30170 ft | 388 kts | 308° |
| 2026-05-04 10:50 | 38.85246 | 21.22253 | 30173 ft | 388 kts | 308° |
| 2026-05-04 10:51 | 38.95246 | 21.03099 | 27054 ft | 361 kts | 308° |
| 2026-05-04 10:52 | 38.96638 | 21.00424 | 26542 ft | 359 kts | 308° |
| 2026-05-04 10:52 | 38.98022 | 20.97758 | 26050 ft | 357 kts | 308° |
| 2026-05-04 10:52 | 38.99397 | 20.95106 | 25468 ft | 355 kts | 308° |
| 2026-05-04 10:54 | 39.08804 | 20.76945 | 21669 ft | 343 kts | 308° |
| 2026-05-04 10:54 | 39.10125 | 20.74394 | 21197 ft | 342 kts | 308° |
| 2026-05-04 10:56 | 39.19164 | 20.56826 | 17996 ft | 331 kts | 308° |
| 2026-05-04 10:56 | 39.20431 | 20.54366 | 17882 ft | 329 kts | 310° |
| 2026-05-04 10:56 | 39.22005 | 20.52291 | 17804 ft | 322 kts | 328° |
| 2026-05-04 10:57 | 39.23999 | 20.51041 | 17722 ft | 319 kts | 345° |
| 2026-05-04 10:57 | 39.26152 | 20.50342 | 17650 ft | 319 kts | 346° |
| 2026-05-04 10:57 | 39.28279 | 20.49679 | 17577 ft | 319 kts | 347° |
| 2026-05-04 10:57 | 39.30479 | 20.48987 | 17495 ft | 330 kts | 344° |
| 2026-05-04 10:58 | 39.32568 | 20.47711 | 17322 ft | 344 kts | 326° |
| 2026-05-04 10:58 | 39.34207 | 20.45441 | 17024 ft | 352 kts | 306° |
| 2026-05-04 10:58 | 39.35114 | 20.42469 | 16766 ft | 362 kts | 288° |
| 2026-05-04 10:58 | 39.35609 | 20.39242 | 16511 ft | 374 kts | 287° |
| 2026-05-04 10:59 | 39.36114 | 20.35972 | 16251 ft | 366 kts | 285° |
| 2026-05-04 10:59 | 39.36543 | 20.32746 | 15994 ft | 362 kts | 285° |
| 2026-05-04 10:59 | 39.36948 | 20.29547 | 15625 ft | 361 kts | 284° |
| 2026-05-04 10:59 | 39.37354 | 20.26345 | 15254 ft | 358 kts | 285° |
| 2026-05-04 11:00 | 39.37771 | 20.23179 | 14878 ft | 356 kts | 285° |
| 2026-05-04 11:01 | 39.32719 | 20.02785 | 11754 ft | 368 kts | 235° |
| 2026-05-04 11:02 | 39.31144 | 20.00248 | 11318 ft | 365 kts | 235° |
| 2026-05-04 11:02 | 39.29564 | 19.97695 | 10836 ft | 363 kts | 235° |
| 2026-05-04 11:05 | 39.19501 | 20.00872 | 6466 ft | 255 kts | 353° |
| 2026-05-04 11:06 | 39.21271 | 20.00640 | 6336 ft | 255 kts | 353° |
| 2026-05-04 11:06 | 39.23036 | 20.00402 | 6201 ft | 255 kts | 353° |
| 2026-05-04 11:06 | 39.24803 | 20.00160 | 5754 ft | 253 kts | 353° |
| 2026-05-04 11:06 | 39.26555 | 19.99922 | 5234 ft | 253 kts | 353° |
| 2026-05-04 11:08 | 39.36916 | 19.98550 | 3929 ft | 184 kts | 352° |
| 2026-05-04 11:10 | 39.44888 | 19.96853 | 2941 ft | 168 kts | 343° |
| 2026-05-04 11:12 | 39.52639 | 19.93936 | 1326 ft | 146 kts | 343° |
| 2026-05-04 11:12 | 39.53608 | 19.93573 | 1127 ft | 144 kts | 343° |
| 2026-05-04 11:12 | 39.54571 | 19.93213 | 931 ft | 144 kts | 343° |
| 2026-05-04 11:12 | 39.55543 | 19.92844 | 727 ft | 146 kts | 345° |
| 2026-05-04 11:13 | 39.56522 | 19.92458 | 482 ft | 149 kts | 343° |
| 2026-05-04 11:13 | 39.57509 | 19.92044 | 304 ft | 150 kts | 343° |
| 2026-05-04 11:13 | 39.58509 | 19.91661 | 172 ft | 149 kts | 349° |
| 2026-05-04 11:13 | 39.59513 | 19.91382 | 12 ft | 144 kts | 351° |
| 2026-05-04 11:14 | 39.60260 | 19.91200 | 11 ft | 67 kts | 348° |
| 2026-05-04 11:14 | 39.60508 | 19.91161 | 8 ft | 19 kts | 14° |
| 2026-05-04 11:14 | 39.60587 | 19.91204 | 8 ft | 5 kts | 30° |
| 2026-05-04 11:16 | 39.60853 | 19.91176 | 8 ft | 13 kts | 348° |
| 2026-05-04 11:16 | 39.60898 | 19.91163 | 9 ft | 0 kts | 348° |
| 2026-05-04 11:16 | 39.60909 | 19.91160 | 8 ft | 3 kts | 348° |
| 2026-05-04 11:17 | 39.60929 | 19.91170 | 8 ft | 3 kts | 52° |
| 2026-05-04 11:17 | 39.60932 | 19.91203 | 8 ft | 4 kts | 78° |
| 2026-05-04 11:19 | 39.60942 | 19.91253 | 10 ft | 0 kts | 76° |